sensor_id;sensor_type;location;lat;lon;timestamp;pressure;altitude;pressure_sealevel;temperature;humidity
49709;BME280;35601;55.902;13.606;2023-01-31T00:01:24;99767.55;;;-0.82;72.50
49709;BME280;35601;55.902;13.606;2023-01-31T00:03:51;99770.69;;;-0.88;72.77
49709;BME280;35601;55.902;13.606;2023-01-31T00:06:15;99777.00;;;-0.93;72.08
49709;BME280;35601;55.902;13.606;2023-01-31T00:08:38;99782.23;;;-0.91;72.01
49709;BME280;35601;55.902;13.606;2023-01-31T00:11:04;99781.17;;;-0.44;71.91
49709;BME280;35601;55.902;13.606;2023-01-31T00:13:29;99778.06;;;-1.39;71.80
49709;BME280;35601;55.902;13.606;2023-01-31T00:15:55;99782.37;;;-1.76;71.19
49709;BME280;35601;55.902;13.606;2023-01-31T00:18:19;99785.88;;;-0.70;70.76
49709;BME280;35601;55.902;13.606;2023-01-31T00:20:45;99777.47;;;-1.02;70.86
49709;BME280;35601;55.902;13.606;2023-01-31T00:23:10;99785.08;;;-0.78;70.57
49709;BME280;35601;55.902;13.606;2023-01-31T00:25:36;99799.87;;;-0.85;70.79
49709;BME280;35601;55.902;13.606;2023-01-31T00:28:01;99801.37;;;-1.35;72.00
49709;BME280;35601;55.902;13.606;2023-01-31T00:30:26;99802.55;;;-1.02;71.67
49709;BME280;35601;55.902;13.606;2023-01-31T00:32:52;99802.92;;;-1.02;71.60
49709;BME280;35601;55.902;13.606;2023-01-31T00:35:17;99813.88;;;-1.03;72.34
49709;BME280;35601;55.902;13.606;2023-01-31T00:37:42;99808.44;;;-0.96;72.28
49709;BME280;35601;55.902;13.606;2023-01-31T00:40:09;99812.84;;;-1.08;72.33
49709;BME280;35601;55.902;13.606;2023-01-31T00:42:33;99815.31;;;-1.24;72.39
49709;BME280;35601;55.902;13.606;2023-01-31T00:44:58;99817.68;;;-1.03;72.24
49709;BME280;35601;55.902;13.606;2023-01-31T00:47:24;99816.38;;;-0.82;71.64
49709;BME280;35601;55.902;13.606;2023-01-31T00:49:49;99822.02;;;-0.81;70.91
49709;BME280;35601;55.902;13.606;2023-01-31T00:52:14;99823.30;;;-1.13;70.83
49709;BME280;35601;55.902;13.606;2023-01-31T00:54:40;99835.37;;;-0.87;71.54
49709;BME280;35601;55.902;13.606;2023-01-31T00:57:05;99831.60;;;-1.13;72.48
49709;BME280;35601;55.902;13.606;2023-01-31T00:59:30;99831.77;;;-1.26;72.58
49709;BME280;35601;55.902;13.606;2023-01-31T01:01:55;99831.98;;;-1.24;72.74
49709;BME280;35601;55.902;13.606;2023-01-31T01:04:21;99825.96;;;-1.41;73.27
49709;BME280;35601;55.902;13.606;2023-01-31T01:06:46;99826.60;;;-1.29;73.09
49709;BME280;35601;55.902;13.606;2023-01-31T01:09:12;99832.00;;;-1.28;72.92
49709;BME280;35601;55.902;13.606;2023-01-31T01:11:37;99837.59;;;-1.44;73.25
49709;BME280;35601;55.902;13.606;2023-01-31T01:14:02;99839.40;;;-1.31;73.23
49709;BME280;35601;55.902;13.606;2023-01-31T01:16:30;99850.04;;;-1.16;72.70
49709;BME280;35601;55.902;13.606;2023-01-31T01:18:53;99845.63;;;-1.25;73.15
49709;BME280;35601;55.902;13.606;2023-01-31T01:21:20;99844.49;;;-1.33;72.47
49709;BME280;35601;55.902;13.606;2023-01-31T01:23:44;99847.27;;;-1.34;72.41
49709;BME280;35601;55.902;13.606;2023-01-31T01:26:13;99844.88;;;-1.12;72.54
49709;BME280;35601;55.902;13.606;2023-01-31T01:28:34;99843.27;;;-1.15;71.96
49709;BME280;35601;55.902;13.606;2023-01-31T01:31:03;99852.66;;;-1.25;71.20
49709;BME280;35601;55.902;13.606;2023-01-31T01:33:24;99856.00;;;-1.45;72.08
49709;BME280;35601;55.902;13.606;2023-01-31T01:35:50;99861.88;;;-1.43;72.08
49709;BME280;35601;55.902;13.606;2023-01-31T01:38:15;99868.90;;;-0.98;71.55
49709;BME280;35601;55.902;13.606;2023-01-31T01:40:40;99868.41;;;-0.87;71.07
49709;BME280;35601;55.902;13.606;2023-01-31T01:43:09;99875.95;;;-1.09;70.95
49709;BME280;35601;55.902;13.606;2023-01-31T01:45:31;99884.44;;;-1.03;70.70
49709;BME280;35601;55.902;13.606;2023-01-31T01:47:59;99880.92;;;-1.29;71.13
49709;BME280;35601;55.902;13.606;2023-01-31T01:50:26;99885.07;;;-1.13;70.80
49709;BME280;35601;55.902;13.606;2023-01-31T01:52:51;99883.70;;;-1.16;70.66
49709;BME280;35601;55.902;13.606;2023-01-31T01:55:17;99884.61;;;-1.06;70.40
49709;BME280;35601;55.902;13.606;2023-01-31T01:57:40;99884.55;;;-1.28;70.04
49709;BME280;35601;55.902;13.606;2023-01-31T02:00:09;99886.52;;;-1.13;70.25
49709;BME280;35601;55.902;13.606;2023-01-31T02:02:28;99887.28;;;-1.16;70.31
49709;BME280;35601;55.902;13.606;2023-01-31T02:04:54;99892.41;;;-1.48;70.50
49709;BME280;35601;55.902;13.606;2023-01-31T02:07:19;99897.63;;;-1.40;71.13
49709;BME280;35601;55.902;13.606;2023-01-31T02:09:48;99893.80;;;-1.12;71.00
49709;BME280;35601;55.902;13.606;2023-01-31T02:12:10;99895.86;;;-1.05;70.83
49709;BME280;35601;55.902;13.606;2023-01-31T02:14:34;99898.97;;;-1.19;70.45
49709;BME280;35601;55.902;13.606;2023-01-31T02:17:00;99895.27;;;-1.40;70.49
49709;BME280;35601;55.902;13.606;2023-01-31T02:19:34;99897.11;;;-1.46;70.62
49709;BME280;35601;55.902;13.606;2023-01-31T02:22:08;99905.82;;;-1.29;70.74
49709;BME280;35601;55.902;13.606;2023-01-31T02:24:31;99910.25;;;-1.14;70.47
49709;BME280;35601;55.902;13.606;2023-01-31T02:26:57;99917.29;;;-1.09;70.28
49709;BME280;35601;55.902;13.606;2023-01-31T02:29:25;99929.71;;;-1.19;70.64
49709;BME280;35601;55.902;13.606;2023-01-31T02:34:01;99943.51;;;-1.28;70.78
49709;BME280;35601;55.902;13.606;2023-01-31T02:36:30;99938.83;;;-1.26;71.23
49709;BME280;35601;55.902;13.606;2023-01-31T02:38:56;99936.75;;;-1.29;71.54
49709;BME280;35601;55.902;13.606;2023-01-31T02:41:17;99941.56;;;-1.43;71.71
49709;BME280;35601;55.902;13.606;2023-01-31T02:43:44;99951.68;;;-1.29;71.46
49709;BME280;35601;55.902;13.606;2023-01-31T02:46:08;99961.60;;;-1.17;71.02
49709;BME280;35601;55.902;13.606;2023-01-31T02:48:35;99958.90;;;-1.36;70.63
49709;BME280;35601;55.902;13.606;2023-01-31T02:50:59;99965.02;;;-1.73;70.29
49709;BME280;35601;55.902;13.606;2023-01-31T02:53:23;99970.90;;;-1.47;69.82
49709;BME280;35601;55.902;13.606;2023-01-31T02:55:49;99974.97;;;-1.25;69.74
49709;BME280;35601;55.902;13.606;2023-01-31T02:58:13;99979.80;;;-1.38;69.32
49709;BME280;35601;55.902;13.606;2023-01-31T03:00:38;99986.36;;;-1.30;69.14
49709;BME280;35601;55.902;13.606;2023-01-31T03:03:04;99973.23;;;-1.52;68.70
49709;BME280;35601;55.902;13.606;2023-01-31T03:05:26;99977.89;;;-1.28;68.54
49709;BME280;35601;55.902;13.606;2023-01-31T03:07:53;99986.34;;;-1.24;68.19
49709;BME280;35601;55.902;13.606;2023-01-31T03:10:27;99983.55;;;-1.23;68.21
49709;BME280;35601;55.902;13.606;2023-01-31T03:12:49;99984.51;;;-1.37;68.45
49709;BME280;35601;55.902;13.606;2023-01-31T03:15:17;99984.14;;;-1.52;68.84
49709;BME280;35601;55.902;13.606;2023-01-31T03:17:38;99989.32;;;-1.62;69.22
49709;BME280;35601;55.902;13.606;2023-01-31T03:20:03;99992.97;;;-1.41;69.20
49709;BME280;35601;55.902;13.606;2023-01-31T03:22:26;99987.79;;;-1.53;68.84
49709;BME280;35601;55.902;13.606;2023-01-31T03:24:49;99984.96;;;-1.57;68.70
49709;BME280;35601;55.902;13.606;2023-01-31T03:27:14;99989.38;;;-1.72;68.35
49709;BME280;35601;55.902;13.606;2023-01-31T03:29:40;99991.09;;;-1.50;68.27
49709;BME280;35601;55.902;13.606;2023-01-31T03:32:09;99995.07;;;-1.31;68.16
49709;BME280;35601;55.902;13.606;2023-01-31T03:34:31;100000.55;;;-1.58;68.03
49709;BME280;35601;55.902;13.606;2023-01-31T03:37:00;99998.60;;;-1.52;67.63
49709;BME280;35601;55.902;13.606;2023-01-31T03:39:30;99994.41;;;-1.49;67.37
49709;BME280;35601;55.902;13.606;2023-01-31T03:41:54;99992.15;;;-1.70;67.16
49709;BME280;35601;55.902;13.606;2023-01-31T03:44:17;99990.90;;;-1.40;66.91
49709;BME280;35601;55.902;13.606;2023-01-31T03:46:40;99990.22;;;-1.69;66.91
49709;BME280;35601;55.902;13.606;2023-01-31T03:49:05;99989.41;;;-1.44;66.88
49709;BME280;35601;55.902;13.606;2023-01-31T03:51:29;99996.04;;;-2.02;67.28
49709;BME280;35601;55.902;13.606;2023-01-31T03:53:57;99999.11;;;-1.84;67.50
49709;BME280;35601;55.902;13.606;2023-01-31T03:56:20;100004.42;;;-1.65;67.95
49709;BME280;35601;55.902;13.606;2023-01-31T03:58:46;100005.27;;;-1.62;68.06
49709;BME280;35601;55.902;13.606;2023-01-31T04:01:10;100005.03;;;-1.72;68.63
49709;BME280;35601;55.902;13.606;2023-01-31T04:03:38;100003.81;;;-1.75;68.88
49709;BME280;35601;55.902;13.606;2023-01-31T04:06:00;100002.29;;;-1.67;68.90
49709;BME280;35601;55.902;13.606;2023-01-31T04:08:25;100006.25;;;-1.44;68.94
49709;BME280;35601;55.902;13.606;2023-01-31T04:10:51;100007.15;;;-1.40;68.95
49709;BME280;35601;55.902;13.606;2023-01-31T04:13:16;100012.79;;;-1.70;69.09
49709;BME280;35601;55.902;13.606;2023-01-31T04:15:41;100011.76;;;-1.62;69.55
49709;BME280;35601;55.902;13.606;2023-01-31T04:18:07;100016.66;;;-1.77;69.40
49709;BME280;35601;55.902;13.606;2023-01-31T04:20:32;100019.97;;;-1.71;69.30
49709;BME280;35601;55.902;13.606;2023-01-31T04:22:57;100022.23;;;-1.77;69.27
49709;BME280;35601;55.902;13.606;2023-01-31T04:25:23;100021.79;;;-1.72;69.51
49709;BME280;35601;55.902;13.606;2023-01-31T04:27:48;100022.84;;;-1.88;69.17
49709;BME280;35601;55.902;13.606;2023-01-31T04:30:14;100013.53;;;-1.66;69.25
49709;BME280;35601;55.902;13.606;2023-01-31T04:32:39;100013.39;;;-1.75;69.53
49709;BME280;35601;55.902;13.606;2023-01-31T04:35:05;100018.40;;;-1.66;69.34
49709;BME280;35601;55.902;13.606;2023-01-31T04:37:30;100016.79;;;-1.86;70.00
49709;BME280;35601;55.902;13.606;2023-01-31T04:39:55;100015.24;;;-1.85;70.20
49709;BME280;35601;55.902;13.606;2023-01-31T04:42:21;100012.93;;;-1.56;70.24
49709;BME280;35601;55.902;13.606;2023-01-31T04:44:46;100013.26;;;-1.84;70.41
49709;BME280;35601;55.902;13.606;2023-01-31T04:47:11;100016.89;;;-1.80;70.46
49709;BME280;35601;55.902;13.606;2023-01-31T04:49:36;100014.36;;;-1.77;70.42
49709;BME280;35601;55.902;13.606;2023-01-31T04:52:01;100010.24;;;-1.76;70.18
49709;BME280;35601;55.902;13.606;2023-01-31T04:54:27;100013.90;;;-1.83;70.35
49709;BME280;35601;55.902;13.606;2023-01-31T04:56:52;100015.32;;;-1.50;70.11
49709;BME280;35601;55.902;13.606;2023-01-31T04:59:18;100020.41;;;-1.76;70.12
49709;BME280;35601;55.902;13.606;2023-01-31T05:01:43;100021.12;;;-1.64;69.56
49709;BME280;35601;55.902;13.606;2023-01-31T05:04:08;100025.37;;;-1.54;69.00
49709;BME280;35601;55.902;13.606;2023-01-31T05:06:34;100027.20;;;-1.80;68.79
49709;BME280;35601;55.902;13.606;2023-01-31T05:08:59;100025.22;;;-1.80;69.00
49709;BME280;35601;55.902;13.606;2023-01-31T05:11:25;100024.37;;;-1.58;69.55
49709;BME280;35601;55.902;13.606;2023-01-31T05:13:50;100023.21;;;-2.12;70.35
49709;BME280;35601;55.902;13.606;2023-01-31T05:16:16;100021.35;;;-1.92;71.20
49709;BME280;35601;55.902;13.606;2023-01-31T05:18:41;100014.71;;;-3.42;70.86
49709;BME280;35601;55.902;13.606;2023-01-31T05:21:06;100008.87;;;-1.68;70.45
49709;BME280;35601;55.902;13.606;2023-01-31T05:23:32;100006.99;;;-1.80;71.20
49709;BME280;35601;55.902;13.606;2023-01-31T05:25:57;100006.24;;;-1.72;72.05
49709;BME280;35601;55.902;13.606;2023-01-31T05:28:23;100009.35;;;-1.89;73.24
49709;BME280;35601;55.902;13.606;2023-01-31T05:30:48;100008.72;;;-1.95;73.71
49709;BME280;35601;55.902;13.606;2023-01-31T05:33:13;100008.82;;;-1.68;73.63
49709;BME280;35601;55.902;13.606;2023-01-31T05:35:38;100010.29;;;-2.00;74.11
49709;BME280;35601;55.902;13.606;2023-01-31T05:38:04;100008.07;;;-2.33;74.97
49709;BME280;35601;55.902;13.606;2023-01-31T05:40:29;100008.81;;;-1.81;74.73
49709;BME280;35601;55.902;13.606;2023-01-31T05:42:56;100007.90;;;-1.82;74.80
49709;BME280;35601;55.902;13.606;2023-01-31T05:45:20;100000.36;;;-1.86;75.12
49709;BME280;35601;55.902;13.606;2023-01-31T05:47:46;100000.27;;;-2.13;75.41
49709;BME280;35601;55.902;13.606;2023-01-31T05:50:11;100002.68;;;-1.92;75.12
49709;BME280;35601;55.902;13.606;2023-01-31T05:52:36;100000.78;;;-2.01;75.42
49709;BME280;35601;55.902;13.606;2023-01-31T05:55:01;99997.90;;;-2.05;75.90
49709;BME280;35601;55.902;13.606;2023-01-31T05:57:26;99992.61;;;-2.07;75.84
49709;BME280;35601;55.902;13.606;2023-01-31T05:59:52;99995.17;;;-2.04;76.04
49709;BME280;35601;55.902;13.606;2023-01-31T06:02:17;100006.23;;;-2.22;75.98
49709;BME280;35601;55.902;13.606;2023-01-31T06:04:43;100012.98;;;-2.02;76.04
49709;BME280;35601;55.902;13.606;2023-01-31T06:07:09;100019.62;;;-2.01;76.08
49709;BME280;35601;55.902;13.606;2023-01-31T06:09:34;100020.95;;;-2.00;76.09
49709;BME280;35601;55.902;13.606;2023-01-31T06:11:59;100023.10;;;-2.05;75.71
49709;BME280;35601;55.902;13.606;2023-01-31T06:14:25;100027.21;;;-1.99;74.84
49709;BME280;35601;55.902;13.606;2023-01-31T06:16:50;100028.29;;;-2.02;74.59
49709;BME280;35601;55.902;13.606;2023-01-31T06:19:15;100029.37;;;-2.08;74.31
49709;BME280;35601;55.902;13.606;2023-01-31T06:21:41;100031.21;;;-2.20;75.09
49709;BME280;35601;55.902;13.606;2023-01-31T06:24:06;100032.30;;;-2.31;76.20
49709;BME280;35601;55.902;13.606;2023-01-31T06:26:31;100030.18;;;-2.21;77.14
49709;BME280;35601;55.902;13.606;2023-01-31T06:28:57;100032.17;;;-2.29;77.49
49709;BME280;35601;55.902;13.606;2023-01-31T06:31:22;100031.84;;;-2.01;77.37
49709;BME280;35601;55.902;13.606;2023-01-31T06:33:47;100032.17;;;-2.31;77.85
49709;BME280;35601;55.902;13.606;2023-01-31T06:36:13;100027.15;;;-2.37;77.91
49709;BME280;35601;55.902;13.606;2023-01-31T06:38:38;100024.26;;;-2.15;77.92
49709;BME280;35601;55.902;13.606;2023-01-31T06:41:04;100024.10;;;-2.58;78.20
49709;BME280;35601;55.902;13.606;2023-01-31T06:43:29;100026.30;;;-2.65;78.34
49709;BME280;35601;55.902;13.606;2023-01-31T06:45:55;100024.59;;;-2.42;77.80
49709;BME280;35601;55.902;13.606;2023-01-31T06:48:20;100025.07;;;-2.47;78.80
49709;BME280;35601;55.902;13.606;2023-01-31T06:50:45;100016.36;;;-2.24;78.94
49709;BME280;35601;55.902;13.606;2023-01-31T06:53:11;100019.67;;;-2.43;78.92
49709;BME280;35601;55.902;13.606;2023-01-31T06:55:37;100020.31;;;-2.39;78.66
49709;BME280;35601;55.902;13.606;2023-01-31T06:58:01;100022.56;;;-2.42;78.82
49709;BME280;35601;55.902;13.606;2023-01-31T07:00:26;100025.28;;;-2.34;78.75
49709;BME280;35601;55.902;13.606;2023-01-31T07:02:52;100027.05;;;-2.48;79.65
49709;BME280;35601;55.902;13.606;2023-01-31T07:05:18;100030.26;;;-2.20;80.02
49709;BME280;35601;55.902;13.606;2023-01-31T07:07:43;100017.17;;;-2.30;80.80
49709;BME280;35601;55.902;13.606;2023-01-31T07:10:11;100019.09;;;-2.50;80.62
49709;BME280;35601;55.902;13.606;2023-01-31T07:12:33;100016.36;;;-2.47;80.71
49709;BME280;35601;55.902;13.606;2023-01-31T07:14:58;100013.62;;;-2.39;80.59
49709;BME280;35601;55.902;13.606;2023-01-31T07:17:23;100015.02;;;-2.42;81.04
49709;BME280;35601;55.902;13.606;2023-01-31T07:19:49;100014.90;;;-2.35;80.89
49709;BME280;35601;55.902;13.606;2023-01-31T07:22:14;100014.96;;;-2.41;81.41
49709;BME280;35601;55.902;13.606;2023-01-31T07:24:39;100012.86;;;-2.25;80.84
49709;BME280;35601;55.902;13.606;2023-01-31T07:27:04;100016.34;;;-2.33;81.39
49709;BME280;35601;55.902;13.606;2023-01-31T07:29:29;100016.01;;;-2.25;81.36
49709;BME280;35601;55.902;13.606;2023-01-31T07:31:55;100016.64;;;-1.95;81.30
49709;BME280;35601;55.902;13.606;2023-01-31T07:34:20;100011.14;;;-2.49;81.79
49709;BME280;35601;55.902;13.606;2023-01-31T07:36:46;100004.32;;;-2.30;81.33
49709;BME280;35601;55.902;13.606;2023-01-31T07:39:11;100001.95;;;-1.96;80.72
49709;BME280;35601;55.902;13.606;2023-01-31T07:41:37;99996.78;;;-1.82;80.43
49709;BME280;35601;55.902;13.606;2023-01-31T07:44:02;99993.35;;;-1.82;80.54
49709;BME280;35601;55.902;13.606;2023-01-31T07:46:28;99990.78;;;-2.03;80.61
49709;BME280;35601;55.902;13.606;2023-01-31T07:48:53;99996.32;;;-1.72;80.93
49709;BME280;35601;55.902;13.606;2023-01-31T07:51:18;99996.23;;;-1.75;81.12
49709;BME280;35601;55.902;13.606;2023-01-31T07:53:43;99997.27;;;-1.88;81.04
49709;BME280;35601;55.902;13.606;2023-01-31T07:56:11;99998.03;;;-1.92;81.61
49709;BME280;35601;55.902;13.606;2023-01-31T07:58:34;99996.02;;;-1.84;81.44
49709;BME280;35601;55.902;13.606;2023-01-31T08:00:59;99992.07;;;-2.10;80.99
49709;BME280;35601;55.902;13.606;2023-01-31T08:03:26;99988.11;;;-1.62;81.33
49709;BME280;35601;55.902;13.606;2023-01-31T08:05:50;99987.18;;;-1.57;81.12
49709;BME280;35601;55.902;13.606;2023-01-31T08:08:15;99976.29;;;-1.72;81.07
49709;BME280;35601;55.902;13.606;2023-01-31T08:10:40;99973.70;;;-1.67;80.96
49709;BME280;35601;55.902;13.606;2023-01-31T08:13:06;99973.95;;;-1.62;80.79
49709;BME280;35601;55.902;13.606;2023-01-31T08:15:31;99972.37;;;-1.54;80.42
49709;BME280;35601;55.902;13.606;2023-01-31T08:17:56;99976.04;;;-1.48;80.36
49709;BME280;35601;55.902;13.606;2023-01-31T08:20:22;99974.91;;;-1.71;80.37
49709;BME280;35601;55.902;13.606;2023-01-31T08:22:47;99973.58;;;-1.47;80.48
49709;BME280;35601;55.902;13.606;2023-01-31T08:25:12;99975.47;;;-1.39;80.49
49709;BME280;35601;55.902;13.606;2023-01-31T08:27:38;99974.17;;;-1.35;80.23
49709;BME280;35601;55.902;13.606;2023-01-31T08:30:04;99969.55;;;-1.55;80.51
49709;BME280;35601;55.902;13.606;2023-01-31T08:32:28;99967.94;;;-1.31;80.85
49709;BME280;35601;55.902;13.606;2023-01-31T08:34:54;99963.60;;;-1.30;81.04
49709;BME280;35601;55.902;13.606;2023-01-31T08:37:19;99967.10;;;-1.46;81.04
49709;BME280;35601;55.902;13.606;2023-01-31T08:39:44;99961.78;;;-1.30;81.32
49709;BME280;35601;55.902;13.606;2023-01-31T08:42:10;99962.50;;;-1.60;81.53
49709;BME280;35601;55.902;13.606;2023-01-31T08:44:35;99962.19;;;-1.25;81.44
49709;BME280;35601;55.902;13.606;2023-01-31T08:47:00;99963.50;;;-0.95;81.23
49709;BME280;35601;55.902;13.606;2023-01-31T08:49:25;99958.28;;;-1.13;80.87
49709;BME280;35601;55.902;13.606;2023-01-31T08:51:51;99961.85;;;-1.22;81.15
49709;BME280;35601;55.902;13.606;2023-01-31T08:54:16;99956.62;;;-1.14;81.15
49709;BME280;35601;55.902;13.606;2023-01-31T08:56:41;99949.77;;;-1.03;80.81
49709;BME280;35601;55.902;13.606;2023-01-31T08:59:08;99953.50;;;-1.00;80.64
49709;BME280;35601;55.902;13.606;2023-01-31T09:01:32;99945.82;;;-0.96;80.64
49709;BME280;35601;55.902;13.606;2023-01-31T09:03:58;99947.92;;;-1.11;80.37
49709;BME280;35601;55.902;13.606;2023-01-31T09:06:24;99944.63;;;-0.99;79.95
49709;BME280;35601;55.902;13.606;2023-01-31T09:08:48;99947.97;;;-0.91;79.69
49709;BME280;35601;55.902;13.606;2023-01-31T09:11:14;99941.85;;;-0.80;79.19
49709;BME280;35601;55.902;13.606;2023-01-31T09:13:38;99938.52;;;-0.95;78.52
49709;BME280;35601;55.902;13.606;2023-01-31T09:16:06;99940.54;;;-0.59;77.96
49709;BME280;35601;55.902;13.606;2023-01-31T09:18:29;99938.84;;;-0.61;77.80
49709;BME280;35601;55.902;13.606;2023-01-31T09:20:54;99933.31;;;-0.60;77.67
49709;BME280;35601;55.902;13.606;2023-01-31T09:23:21;99934.25;;;-0.88;78.03
49709;BME280;35601;55.902;13.606;2023-01-31T09:25:51;99932.03;;;-0.28;77.69
49709;BME280;35601;55.902;13.606;2023-01-31T09:28:10;99933.45;;;-0.65;77.38
49709;BME280;35601;55.902;13.606;2023-01-31T09:30:36;99931.70;;;-0.53;77.20
49709;BME280;35601;55.902;13.606;2023-01-31T09:33:01;99927.55;;;-0.42;77.14
49709;BME280;35601;55.902;13.606;2023-01-31T09:35:26;99923.55;;;-0.21;76.90
49709;BME280;35601;55.902;13.606;2023-01-31T09:37:51;99923.55;;;-0.38;77.03
49709;BME280;35601;55.902;13.606;2023-01-31T09:40:20;99919.44;;;-0.33;76.88
49709;BME280;35601;55.902;13.606;2023-01-31T09:42:44;99915.24;;;-0.31;76.98
49709;BME280;35601;55.902;13.606;2023-01-31T09:45:11;99911.47;;;-0.23;76.78
49709;BME280;35601;55.902;13.606;2023-01-31T09:47:35;99902.27;;;-0.19;77.26
49709;BME280;35601;55.902;13.606;2023-01-31T09:50:01;99890.95;;;-0.19;77.71
49709;BME280;35601;55.902;13.606;2023-01-31T09:52:23;99885.97;;;-0.44;77.22
49709;BME280;35601;55.902;13.606;2023-01-31T09:54:48;99874.14;;;-0.10;77.49
49709;BME280;35601;55.902;13.606;2023-01-31T09:57:22;99868.35;;;-0.04;77.18
49709;BME280;35601;55.902;13.606;2023-01-31T09:59:47;99857.14;;;-0.24;77.49
49709;BME280;35601;55.902;13.606;2023-01-31T10:02:15;99852.67;;;-0.21;77.51
49709;BME280;35601;55.902;13.606;2023-01-31T10:04:41;99847.39;;;-0.32;77.81
49709;BME280;35601;55.902;13.606;2023-01-31T10:07:02;99834.87;;;-0.28;78.13
49709;BME280;35601;55.902;13.606;2023-01-31T10:09:27;99829.24;;;-0.23;78.17
49709;BME280;35601;55.902;13.606;2023-01-31T10:11:50;99827.74;;;-0.42;79.02
49709;BME280;35601;55.902;13.606;2023-01-31T10:14:20;99827.42;;;-0.36;79.38
49709;BME280;35601;55.902;13.606;2023-01-31T10:16:41;99820.30;;;-0.31;79.68
49709;BME280;35601;55.902;13.606;2023-01-31T10:19:07;99814.44;;;-0.29;79.79
49709;BME280;35601;55.902;13.606;2023-01-31T10:21:33;99811.57;;;-0.56;80.28
49709;BME280;35601;55.902;13.606;2023-01-31T10:23:57;99809.83;;;-0.36;80.55
49709;BME280;35601;55.902;13.606;2023-01-31T10:26:24;99807.10;;;-0.19;81.32
49709;BME280;35601;55.902;13.606;2023-01-31T10:28:50;99804.80;;;-0.31;81.55
49709;BME280;35601;55.902;13.606;2023-01-31T10:31:20;99792.37;;;-0.58;82.68
49709;BME280;35601;55.902;13.606;2023-01-31T10:33:43;99787.66;;;-0.59;83.08
49709;BME280;35601;55.902;13.606;2023-01-31T10:36:08;99774.93;;;-0.38;83.67
49709;BME280;35601;55.902;13.606;2023-01-31T10:38:32;99771.20;;;-0.59;84.25
49709;BME280;35601;55.902;13.606;2023-01-31T10:40:58;99770.01;;;-0.70;84.71
49709;BME280;35601;55.902;13.606;2023-01-31T10:43:21;99769.41;;;-0.45;85.46
49709;BME280;35601;55.902;13.606;2023-01-31T10:45:43;99764.41;;;-0.62;85.78
49709;BME280;35601;55.902;13.606;2023-01-31T10:48:15;99754.51;;;-0.70;85.99
49709;BME280;35601;55.902;13.606;2023-01-31T10:50:41;99748.26;;;-0.76;87.30
49709;BME280;35601;55.902;13.606;2023-01-31T10:53:12;99739.55;;;-0.66;87.01
49709;BME280;35601;55.902;13.606;2023-01-31T10:55:37;99734.51;;;-1.17;87.93
49709;BME280;35601;55.902;13.606;2023-01-31T10:57:51;99731.02;;;-0.99;88.38
49709;BME280;35601;55.902;13.606;2023-01-31T11:00:19;99720.52;;;-0.68;88.78
49709;BME280;35601;55.902;13.606;2023-01-31T11:02:41;99710.64;;;-1.27;89.39
49709;BME280;35601;55.902;13.606;2023-01-31T11:05:13;99702.13;;;-0.90;89.09
49709;BME280;35601;55.902;13.606;2023-01-31T11:07:31;99697.38;;;-1.06;89.51
49709;BME280;35601;55.902;13.606;2023-01-31T11:09:57;99693.19;;;-0.97;89.63
49709;BME280;35601;55.902;13.606;2023-01-31T11:17:16;99656.48;;;-1.15;90.65
49709;BME280;35601;55.902;13.606;2023-01-31T11:19:42;99644.07;;;-1.24;91.09
49709;BME280;35601;55.902;13.606;2023-01-31T11:22:04;99635.29;;;-1.38;91.69
49709;BME280;35601;55.902;13.606;2023-01-31T11:24:32;99630.62;;;-1.34;92.68
49709;BME280;35601;55.902;13.606;2023-01-31T11:26:57;99629.01;;;-1.55;94.48
49709;BME280;35601;55.902;13.606;2023-01-31T11:29:23;99623.68;;;-1.58;95.18
49709;BME280;35601;55.902;13.606;2023-01-31T11:31:46;99618.73;;;-1.69;95.95
49709;BME280;35601;55.902;13.606;2023-01-31T11:34:19;99613.25;;;-1.66;95.92
49709;BME280;35601;55.902;13.606;2023-01-31T11:36:41;99613.37;;;-1.93;97.42
49709;BME280;35601;55.902;13.606;2023-01-31T11:41:29;99604.40;;;-1.62;97.34
49709;BME280;35601;55.902;13.606;2023-01-31T11:44:05;99598.05;;;-1.49;97.64
49709;BME280;35601;55.902;13.606;2023-01-31T11:46:16;99598.46;;;-1.63;98.80
49709;BME280;35601;55.902;13.606;2023-01-31T11:48:43;99599.16;;;-1.67;100.00
49709;BME280;35601;55.902;13.606;2023-01-31T11:51:07;99590.17;;;-2.04;100.00
49709;BME280;35601;55.902;13.606;2023-01-31T11:53:37;99579.47;;;-1.64;100.00
49709;BME280;35601;55.902;13.606;2023-01-31T11:56:07;99574.46;;;-1.58;100.00
49709;BME280;35601;55.902;13.606;2023-01-31T11:58:25;99563.41;;;-1.45;100.00
49709;BME280;35601;55.902;13.606;2023-01-31T12:00:54;99556.28;;;-1.49;100.00
49709;BME280;35601;55.902;13.606;2023-01-31T12:03:15;99557.20;;;-1.92;100.00
49709;BME280;35601;55.902;13.606;2023-01-31T12:05:41;99549.49;;;-1.60;99.13
49709;BME280;35601;55.902;13.606;2023-01-31T12:08:07;99543.34;;;-1.47;98.59
49709;BME280;35601;55.902;13.606;2023-01-31T12:10:34;99534.09;;;-1.54;98.95
49709;BME280;35601;55.902;13.606;2023-01-31T12:12:57;99522.79;;;-1.73;99.54
49709;BME280;35601;55.902;13.606;2023-01-31T12:15:21;99515.30;;;-1.19;99.40
49709;BME280;35601;55.902;13.606;2023-01-31T12:17:47;99507.36;;;-1.54;99.87
49709;BME280;35601;55.902;13.606;2023-01-31T12:20:19;99501.16;;;-1.78;99.79
49709;BME280;35601;55.902;13.606;2023-01-31T12:22:42;99489.50;;;-1.72;100.00
49709;BME280;35601;55.902;13.606;2023-01-31T12:25:10;99476.43;;;-1.87;100.00
49709;BME280;35601;55.902;13.606;2023-01-31T12:27:40;99464.21;;;-1.89;100.00
49709;BME280;35601;55.902;13.606;2023-01-31T12:30:02;99456.20;;;-1.76;100.00
49709;BME280;35601;55.902;13.606;2023-01-31T12:32:28;99442.02;;;-1.81;100.00
49709;BME280;35601;55.902;13.606;2023-01-31T12:34:56;99433.01;;;-1.92;100.00
49709;BME280;35601;55.902;13.606;2023-01-31T12:37:20;99420.90;;;-2.27;100.00
49709;BME280;35601;55.902;13.606;2023-01-31T12:39:46;99421.18;;;-2.05;100.00
49709;BME280;35601;55.902;13.606;2023-01-31T12:42:13;99412.10;;;-1.60;100.00
49709;BME280;35601;55.902;13.606;2023-01-31T12:44:37;99407.06;;;-1.62;100.00